createdAt,value
2022-09-06T00:00:40.556Z,54.47
2022-09-06T00:03:42.181Z,55.09
2022-09-06T00:06:43.668Z,56.08
2022-09-06T00:09:45.185Z,55.62
2022-09-06T00:12:47.673Z,55.32
2022-09-06T00:15:49.169Z,56.72
2022-09-06T00:18:54.765Z,56.81
2022-09-06T00:21:56.209Z,56.72
2022-09-06T00:24:57.616Z,56.67
2022-09-06T00:28:01.428Z,56.52
2022-09-06T00:31:29.489Z,56.77
2022-09-06T00:34:31.443Z,57.45
2022-09-06T00:37:32.872Z,57.16
2022-09-06T00:40:35.550Z,57.24
2022-09-06T00:43:37.167Z,56.60
2022-09-06T00:46:42.051Z,57.44
2022-09-06T00:49:51.078Z,57.19
2022-09-06T00:52:52.780Z,56.70
2022-09-06T00:55:54.864Z,56.48
2022-09-06T00:58:56.291Z,56.92
2022-09-06T01:01:58.437Z,57.93
2022-09-06T01:05:00.388Z,58.00
2022-09-06T01:08:06.311Z,58.04
2022-09-06T01:11:26.019Z,57.46
2022-09-06T01:14:55.517Z,57.81
2022-09-06T01:17:59.893Z,57.25
2022-09-06T01:21:07.484Z,57.36
2022-09-06T01:24:31.861Z,58.92
2022-09-06T01:27:51.686Z,58.11
2022-09-06T01:31:26.678Z,58.25
2022-09-06T01:34:35.218Z,58.59
2022-09-06T01:37:37.005Z,58.00
2022-09-06T01:40:38.409Z,61.29
2022-09-06T01:43:43.895Z,61.96
2022-09-06T01:47:11.547Z,61.45
2022-09-06T01:50:43.945Z,61.92
2022-09-06T01:54:00.922Z,60.43
2022-09-06T01:57:13.639Z,61.17
2022-09-06T02:00:18.504Z,60.71
2022-09-06T02:03:35.004Z,61.79
2022-09-06T02:06:43.255Z,61.84
2022-09-06T02:09:49.814Z,62.29
2022-09-06T02:12:55.152Z,62.35
2022-09-06T02:16:03.639Z,62.90
2022-09-06T02:19:11.735Z,65.35
2022-09-06T02:22:18.585Z,67.50
2022-09-06T02:25:51.726Z,68.62
2022-09-06T02:28:53.453Z,71.04
2022-09-06T02:32:11.029Z,75.47
2022-09-06T02:35:14.934Z,79.56
2022-09-06T02:38:17.582Z,82.42
2022-09-06T02:41:22.618Z,79.95
2022-09-06T02:44:24.139Z,80.93
2022-09-06T02:47:25.557Z,81.23
2022-09-06T02:50:27.213Z,80.73
2022-09-06T02:53:28.629Z,82.74
2022-09-06T02:56:30.098Z,83.70
2022-09-06T02:59:32.362Z,81.97
2022-09-06T03:02:33.848Z,82.39
2022-09-06T03:05:35.492Z,85.16
2022-09-06T03:08:36.958Z,85.26
2022-09-06T03:11:38.490Z,85.53
2022-09-06T03:14:41.199Z,83.99
2022-09-06T03:17:43.604Z,86.64
2022-09-06T03:20:45.334Z,87.23
2022-09-06T03:23:46.822Z,87.82
2022-09-06T03:26:48.302Z,87.00
2022-09-06T03:29:49.828Z,86.10
2022-09-06T03:32:51.232Z,87.96
2022-09-06T03:35:55.499Z,87.60
2022-09-06T03:38:56.921Z,87.69
2022-09-06T03:41:58.348Z,87.93
2022-09-06T03:44:59.786Z,88.52
2022-09-06T03:48:01.213Z,89.50
2022-09-06T03:51:02.676Z,88.38
2022-09-06T03:54:04.262Z,87.16
2022-09-06T03:57:05.717Z,87.36
2022-09-06T04:00:07.914Z,86.56
2022-09-06T04:03:13.079Z,87.22
2022-09-06T04:06:14.571Z,86.26
2022-09-06T04:09:16.012Z,85.96
2022-09-06T04:12:17.486Z,85.22
2022-09-06T04:15:18.903Z,83.53
2022-09-06T04:18:20.960Z,85.31
2022-09-06T04:21:22.390Z,86.15
2022-09-06T04:24:23.804Z,86.53
2022-09-06T04:27:25.220Z,86.13
2022-09-06T04:30:26.726Z,87.85
2022-09-06T04:33:29.488Z,86.83
2022-09-06T04:36:30.950Z,87.14
2022-09-06T04:39:32.387Z,89.73
2022-09-06T04:42:33.871Z,89.69
2022-09-06T04:45:35.359Z,91.14
2022-09-06T04:48:36.827Z,92.08
2022-09-06T04:51:39.448Z,92.50
2022-09-06T04:54:41.270Z,93.14
2022-09-06T04:57:46.605Z,94.99
2022-09-06T05:00:49.954Z,96.25
2022-09-06T05:03:54.993Z,92.43
2022-09-06T05:07:02.940Z,95.76
2022-09-06T05:10:04.719Z,95.02
2022-09-06T05:13:06.167Z,97.63
2022-09-06T05:16:09.032Z,96.43
2022-09-06T05:19:10.712Z,95.99
2022-09-06T05:22:12.422Z,96.39
2022-09-06T05:25:13.882Z,97.04
2022-09-06T05:28:16.257Z,96.94
2022-09-06T05:31:32.032Z,100.00
2022-09-06T05:34:33.525Z,100.00
2022-09-06T05:37:34.959Z,100.00
2022-09-06T05:40:36.386Z,98.16
2022-09-06T05:43:37.790Z,98.03
2022-09-06T05:46:46.157Z,97.56
2022-09-06T05:49:47.627Z,95.35
2022-09-06T05:52:49.037Z,96.48
2022-09-06T05:55:50.454Z,95.76
2022-09-06T05:58:51.871Z,95.66
2022-09-06T06:01:54.106Z,96.00
2022-09-06T06:04:55.601Z,95.30
2022-09-06T06:07:58.846Z,94.41
2022-09-06T06:11:01.289Z,94.15
2022-09-06T06:14:04.214Z,92.83
2022-09-06T06:17:05.825Z,94.44
2022-09-06T06:20:07.877Z,93.89
2022-09-06T06:23:09.269Z,93.69
2022-09-06T06:26:12.269Z,93.84
2022-09-06T06:29:14.464Z,93.08
2022-09-06T06:32:15.986Z,92.68
2022-09-06T06:35:17.458Z,92.48
2022-09-06T06:38:18.877Z,92.52
2022-09-06T06:41:23.876Z,92.53
2022-09-06T06:44:26.621Z,92.63
2022-09-06T06:47:28.017Z,92.27
2022-09-06T06:50:29.425Z,91.04
2022-09-06T06:53:30.951Z,91.32
2022-09-06T06:56:37.903Z,89.55
2022-09-06T06:59:40.031Z,89.55
2022-09-06T07:02:41.455Z,89.00
2022-09-06T07:09:08.494Z,88.73
2022-09-06T07:12:10.051Z,89.24
2022-09-06T07:15:11.504Z,87.74
2022-09-06T07:18:16.049Z,87.87
2022-09-06T07:24:41.161Z,86.44
2022-09-06T07:27:47.141Z,85.61
2022-09-06T07:30:53.372Z,84.50
2022-09-06T07:33:55.687Z,83.58
2022-09-06T07:36:57.326Z,83.49
2022-09-06T07:39:58.806Z,83.10
2022-09-06T07:43:00.285Z,83.23
2022-09-06T07:46:08.198Z,83.03
2022-09-06T07:49:09.654Z,82.91
2022-09-06T07:55:32.578Z,84.53
2022-09-06T07:58:35.082Z,84.58
2022-09-06T08:01:40.074Z,83.47
2022-09-06T08:04:42.467Z,83.27
2022-09-06T08:07:43.872Z,83.57
2022-09-06T08:10:50.229Z,81.74
2022-09-06T08:13:54.707Z,81.20
2022-09-06T08:16:56.157Z,79.76
2022-09-06T08:19:57.606Z,76.68
2022-09-06T08:22:59.023Z,78.09
2022-09-06T08:26:00.842Z,78.37
2022-09-06T08:29:05.830Z,76.02
2022-09-06T08:32:07.274Z,76.01
2022-09-06T08:35:09.300Z,74.99
2022-09-06T08:38:10.710Z,75.74
2022-09-06T08:41:24.663Z,72.70
2022-09-06T08:44:58.488Z,73.22
2022-09-06T08:48:00.293Z,73.00
2022-09-06T08:51:43.650Z,74.61
2022-09-06T08:55:13.072Z,73.14
2022-09-06T08:58:39.144Z,72.86
2022-09-06T09:02:15.156Z,72.86
2022-09-06T09:05:24.631Z,75.64
2022-09-06T09:08:56.820Z,74.60
2022-09-06T09:12:00.539Z,73.30
2022-09-06T09:15:08.724Z,71.10
2022-09-06T09:18:10.204Z,70.58
2022-09-06T09:21:12.040Z,70.71
2022-09-06T09:24:15.625Z,69.53
2022-09-06T09:27:20.083Z,70.24
2022-09-06T09:33:42.907Z,68.30
2022-09-06T09:40:12.804Z,63.01
2022-09-06T09:43:20.268Z,65.00
2022-09-06T09:46:24.516Z,61.32
2022-09-06T09:49:26.004Z,61.44
2022-09-06T09:52:30.838Z,60.45
2022-09-06T09:55:32.484Z,59.30
2022-09-06T09:58:36.657Z,59.24
2022-09-06T10:01:38.656Z,57.74
2022-09-06T10:04:47.029Z,57.69
2022-09-06T10:07:50.912Z,58.13
2022-09-06T10:10:52.662Z,59.54
2022-09-06T10:14:10.140Z,58.01
2022-09-06T10:17:29.652Z,57.35
2022-09-06T10:20:37.611Z,58.12
2022-09-06T10:24:28.459Z,57.55
2022-09-06T10:27:30.989Z,57.77
2022-09-06T10:30:36.290Z,57.80
2022-09-06T10:34:02.921Z,57.48
2022-09-06T10:37:19.719Z,56.75
2022-09-06T10:40:55.539Z,57.90
2022-09-06T10:44:15.221Z,57.20
2022-09-06T10:47:18.086Z,56.76
2022-09-06T10:50:19.917Z,56.62
2022-09-06T10:53:21.245Z,57.35
2022-09-06T10:56:37.043Z,55.36
2022-09-06T10:59:51.519Z,54.64
2022-09-06T11:06:36.711Z,55.81
2022-09-06T11:09:43.448Z,56.04
2022-09-06T11:12:53.919Z,54.96
2022-09-06T11:16:17.991Z,54.17
2022-09-06T11:19:28.933Z,54.01
2022-09-06T11:22:50.100Z,54.18
2022-09-06T11:25:54.237Z,54.36
2022-09-06T11:29:01.362Z,54.78
2022-09-06T11:32:24.026Z,53.48
2022-09-06T11:35:28.042Z,51.73
2022-09-06T11:38:29.517Z,51.74
2022-09-06T11:41:40.624Z,52.83
2022-09-06T11:45:12.708Z,52.13
2022-09-06T11:48:35.063Z,52.15
2022-09-06T11:51:42.058Z,52.51
2022-09-06T11:54:47.218Z,51.23
2022-09-06T11:57:55.054Z,49.91
2022-09-06T12:01:16.670Z,49.76
2022-09-06T12:04:18.128Z,50.35
2022-09-06T12:07:19.594Z,47.24
2022-09-06T12:10:30.082Z,48.57
2022-09-06T12:13:40.033Z,48.58
2022-09-06T12:16:56.653Z,46.17
2022-09-06T12:20:07.274Z,45.32
2022-09-06T12:23:08.920Z,44.90
2022-09-06T12:26:11.975Z,43.46
2022-09-06T12:29:14.153Z,46.13
2022-09-06T12:32:22.145Z,46.88
2022-09-06T12:39:09.630Z,45.53
2022-09-06T12:42:13.084Z,45.59
2022-09-06T12:45:15.349Z,44.75
2022-09-06T12:48:27.382Z,45.50
2022-09-06T12:51:29.146Z,43.68
2022-09-06T12:54:30.558Z,42.84
2022-09-06T12:57:32.072Z,44.56
2022-09-06T13:00:51.262Z,44.41
2022-09-06T13:04:02.820Z,43.85
2022-09-06T13:07:05.886Z,43.01
2022-09-06T13:10:08.758Z,43.64
2022-09-06T13:13:11.419Z,41.84
2022-09-06T13:16:19.322Z,41.57
2022-09-06T13:19:35.235Z,41.16
2022-09-06T13:22:42.506Z,41.48
2022-09-06T13:25:52.040Z,41.42
2022-09-06T13:28:53.448Z,40.84
2022-09-06T13:31:57.011Z,40.29
2022-09-06T13:35:00.127Z,41.15
2022-09-06T13:38:21.624Z,40.99
2022-09-06T13:41:25.872Z,40.70
2022-09-06T13:44:32.279Z,39.04
2022-09-06T13:47:33.709Z,39.18
2022-09-06T13:50:35.331Z,40.30
2022-09-06T13:53:37.065Z,39.38
2022-09-06T13:56:39.253Z,37.53
2022-09-06T13:59:42.067Z,37.79
2022-09-06T14:02:44.173Z,37.89
2022-09-06T14:05:45.745Z,38.44
2022-09-06T14:09:06.550Z,38.76
2022-09-06T14:12:09.893Z,38.80
2022-09-06T14:15:11.370Z,37.73
2022-09-06T14:18:14.533Z,38.78
2022-09-06T14:21:16.488Z,38.07
2022-09-06T14:24:18.020Z,37.42
2022-09-06T14:27:19.532Z,37.49
2022-09-06T14:30:21.053Z,38.68
2022-09-06T14:33:22.538Z,38.47
2022-09-06T14:36:26.956Z,38.41
2022-09-06T14:39:28.520Z,38.82
2022-09-06T14:42:30.652Z,38.59
2022-09-06T14:45:35.228Z,38.17
2022-09-06T14:48:40.322Z,37.89
2022-09-06T14:51:43.535Z,38.31
2022-09-06T14:54:45.002Z,37.90
2022-09-06T14:57:47.077Z,38.18
2022-09-06T15:00:50.131Z,37.59
2022-09-06T15:03:55.551Z,38.03
2022-09-06T15:06:57.038Z,38.76
2022-09-06T15:09:58.473Z,37.96
2022-09-06T15:12:59.938Z,37.96
2022-09-06T15:16:01.461Z,38.27
2022-09-06T15:19:03.756Z,37.91
2022-09-06T15:22:06.292Z,37.33
2022-09-06T15:25:08.115Z,37.95
2022-09-06T15:28:09.538Z,37.41
2022-09-06T15:31:12.190Z,37.36
2022-09-06T15:34:14.566Z,38.63
2022-09-06T15:37:16.005Z,39.12
2022-09-06T15:40:17.623Z,39.76
2022-09-06T15:43:19.914Z,38.54
2022-09-06T15:46:41.640Z,38.71
2022-09-06T15:49:43.112Z,38.69
2022-09-06T15:52:44.602Z,38.85
2022-09-06T15:55:58.014Z,39.61
2022-09-06T15:58:59.592Z,40.31
2022-09-06T16:02:01.119Z,40.46
2022-09-06T16:05:02.548Z,40.27
2022-09-06T16:08:03.965Z,41.43
2022-09-06T16:11:11.708Z,41.79
2022-09-06T16:14:15.696Z,41.48
2022-09-06T16:17:17.106Z,41.75
2022-09-06T16:20:18.526Z,41.81
2022-09-06T16:23:20.428Z,42.28
2022-09-06T16:26:24.433Z,41.21
2022-09-06T16:29:26.192Z,41.39
2022-09-06T16:32:27.606Z,40.95
2022-09-06T16:35:29.093Z,40.58
2022-09-06T16:38:32.089Z,40.10
2022-09-06T16:41:41.163Z,40.46
2022-09-06T16:44:42.717Z,40.75
2022-09-06T16:47:45.034Z,40.99
2022-09-06T16:50:46.491Z,41.11
2022-09-06T16:53:49.170Z,42.02
2022-09-06T16:56:50.579Z,41.96
2022-09-06T16:59:52.196Z,42.26
2022-09-06T17:02:53.682Z,42.20
2022-09-06T17:05:55.116Z,42.33
2022-09-06T17:09:00.529Z,42.22
2022-09-06T17:12:02.569Z,42.16
2022-09-06T17:15:04.488Z,42.85
2022-09-06T17:18:05.940Z,42.37
2022-09-06T17:21:08.109Z,42.72
2022-09-06T17:24:09.628Z,43.51
2022-09-06T17:27:11.152Z,43.45
2022-09-06T17:30:12.670Z,43.77
2022-09-06T17:33:16.890Z,43.86
2022-09-06T17:36:24.322Z,44.17
2022-09-06T17:39:25.775Z,44.49
2022-09-06T17:42:27.231Z,44.65
2022-09-06T17:45:29.226Z,45.04
2022-09-06T17:48:30.750Z,45.53
2022-09-06T17:51:32.994Z,45.34
2022-09-06T17:54:34.462Z,46.01
2022-09-06T17:57:36.137Z,46.79
2022-09-06T18:00:40.260Z,48.02
2022-09-06T18:03:42.988Z,47.68
2022-09-06T18:06:46.360Z,48.29
2022-09-06T18:09:47.832Z,48.87
2022-09-06T18:12:50.189Z,48.95
2022-09-06T18:15:51.604Z,48.68
2022-09-06T18:18:55.983Z,49.01
2022-09-06T18:21:57.629Z,49.81
2022-09-06T18:24:59.041Z,50.56
2022-09-06T18:28:00.450Z,51.78
2022-09-06T18:31:07.827Z,51.47
2022-09-06T18:34:09.998Z,51.71
2022-09-06T18:37:12.099Z,51.77
2022-09-06T18:40:13.536Z,52.40
2022-09-06T18:43:15.293Z,52.85
2022-09-06T18:46:16.770Z,52.56
2022-09-06T18:49:18.357Z,52.72
2022-09-06T18:52:20.657Z,53.15
2022-09-06T18:55:22.112Z,53.74
2022-09-06T18:58:23.699Z,53.30
2022-09-06T19:01:29.037Z,54.39
2022-09-06T19:04:31.006Z,54.42
2022-09-06T19:07:32.532Z,54.95
2022-09-06T19:10:33.964Z,55.20
2022-09-06T19:13:37.804Z,56.15
2022-09-06T19:16:39.327Z,57.41
2022-09-06T19:19:40.844Z,58.03
2022-09-06T19:22:42.288Z,58.65
2022-09-06T19:25:44.035Z,59.10
2022-09-06T19:28:54.680Z,59.92
2022-09-06T19:31:56.165Z,60.24
2022-09-06T19:34:57.746Z,60.54
2022-09-06T19:37:59.145Z,59.40
2022-09-06T19:41:02.469Z,59.74
2022-09-06T19:44:09.204Z,59.90
2022-09-06T19:47:10.850Z,60.03
2022-09-06T19:50:12.464Z,59.26
2022-09-06T19:53:13.963Z,59.96
2022-09-06T19:56:18.379Z,60.98
2022-09-06T19:59:19.813Z,61.19
2022-09-06T20:02:22.548Z,61.52
2022-09-06T20:05:24.210Z,61.06
2022-09-06T20:08:26.405Z,62.18
2022-09-06T20:11:30.512Z,61.90
2022-09-06T20:14:32.127Z,61.88
2022-09-06T20:17:34.630Z,62.00
2022-09-06T20:20:36.222Z,62.90
2022-09-06T20:23:37.753Z,63.03
2022-09-06T20:26:40.273Z,62.41
2022-09-06T20:29:41.755Z,61.60
2022-09-06T20:32:43.189Z,62.36
2022-09-06T20:35:53.736Z,62.40
2022-09-06T20:38:55.342Z,64.13
2022-09-06T20:41:56.910Z,64.33
2022-09-06T20:44:58.426Z,65.01
2022-09-06T20:47:59.928Z,64.67
2022-09-06T20:51:03.410Z,65.52
2022-09-06T20:54:05.419Z,65.80
2022-09-06T20:57:07.041Z,66.05
2022-09-06T21:00:12.524Z,66.95
2022-09-06T21:03:15.775Z,66.51
2022-09-06T21:06:18.220Z,65.34
2022-09-06T21:09:19.709Z,66.29
2022-09-06T21:12:21.142Z,65.67
2022-09-06T21:15:22.560Z,65.49
2022-09-06T21:18:26.340Z,66.52
2022-09-06T21:21:29.580Z,66.10
2022-09-06T21:24:31.068Z,67.02
2022-09-06T21:27:32.521Z,66.33
2022-09-06T21:30:33.982Z,65.94
2022-09-06T21:33:37.755Z,67.23
2022-09-06T21:36:39.682Z,66.75
2022-09-06T21:39:41.263Z,68.18
2022-09-06T21:42:42.784Z,68.67
2022-09-06T21:45:44.330Z,68.66
2022-09-06T21:48:48.331Z,70.05
2022-09-06T21:51:49.728Z,68.95
2022-09-06T21:54:51.142Z,69.46
2022-09-06T21:57:52.590Z,70.69
2022-09-06T22:00:59.057Z,70.36
2022-09-06T22:04:00.648Z,71.36
2022-09-06T22:07:02.052Z,71.28
2022-09-06T22:10:03.973Z,71.33
2022-09-06T22:13:05.410Z,71.73
2022-09-06T22:16:08.340Z,71.50
2022-09-06T22:19:10.236Z,70.48
2022-09-06T22:22:11.640Z,70.10
2022-09-06T22:25:13.757Z,71.34
2022-09-06T22:28:15.219Z,70.45
2022-09-06T22:31:16.754Z,71.07
2022-09-06T22:34:18.298Z,70.96
2022-09-06T22:37:20.128Z,71.76
2022-09-06T22:40:21.542Z,72.01
2022-09-06T22:43:23.376Z,71.81
2022-09-06T22:46:24.876Z,70.65
2022-09-06T22:49:26.333Z,71.73
2022-09-06T22:52:27.924Z,71.92
2022-09-06T22:55:29.730Z,71.10
2022-09-06T22:58:31.368Z,71.37
2022-09-06T23:01:38.619Z,70.86
2022-09-06T23:04:40.068Z,70.40
2022-09-06T23:07:43.311Z,71.22
2022-09-06T23:10:44.740Z,71.48
2022-09-06T23:13:47.038Z,71.23
2022-09-06T23:16:48.480Z,70.62
2022-09-06T23:19:49.947Z,71.19
2022-09-06T23:22:51.357Z,71.90
2022-09-06T23:25:54.096Z,72.13
2022-09-06T23:28:58.672Z,72.18
2022-09-06T23:32:00.286Z,71.23
2022-09-06T23:35:01.750Z,71.96
2022-09-06T23:38:03.204Z,71.45
2022-09-06T23:41:05.640Z,72.54
2022-09-06T23:44:07.072Z,72.79
2022-09-06T23:47:08.499Z,72.91
2022-09-06T23:50:10.721Z,72.41
2022-09-06T23:53:14.078Z,71.93
2022-09-06T23:56:15.898Z,73.33
2022-09-06T23:59:17.314Z,73.32
